Time;durP1;ratioP1;P1;durP2;ratioP2;P2;SDS_P1;SDS_P2;PMS_P1;PMS_P2;Temp;Humidity;BMP_temperature;BMP_pressure;BME280_temperature;BME280_humidity;BME280_pressure;Samples;Min_cycle;Max_cycle;Signal;HPM_P1;HPM_P2
2021/08/24 00:01:53;;;;;;;41.30;12.82;;;;;;;;;;5073343;28;20024;-70
2021/08/24 00:04:19;;;;;;;34.88;13.20;;;;;;;;;;5074244;28;20058;-70
2021/08/24 00:06:45;;;;;;;35.72;11.98;;;;;;;;;;5074734;28;20052;-72
2021/08/24 00:09:11;;;;;;;36.88;14.73;;;;;;;;;;5074763;28;20028;-74
2021/08/24 00:11:37;;;;;;;34.50;12.40;;;;;;;;;;5073218;28;20086;-72
2021/08/24 00:14:06;;;;;;;43.35;13.70;;;;;;;;;;5073209;28;20499;-74
2021/08/24 00:16:32;;;;;;;34.15;13.95;;;;;;;;;;5073543;28;20020;-71
2021/08/24 00:18:58;;;;;;;53.45;14.90;;;;;;;;;;5074145;28;20020;-72
2021/08/24 00:21:25;;;;;;;50.80;14.15;;;;;;;;;;5073799;28;20086;-71
2021/08/24 00:23:51;;;;;;;43.72;13.63;;;;;;;;;;5073738;28;20047;-70
2021/08/24 00:26:18;;;;;;;49.83;15.10;;;;;;;;;;5073102;28;20033;-74
2021/08/24 00:28:44;;;;;;;49.55;13.93;;;;;;;;;;5075601;28;20143;-73
2021/08/24 00:31:10;;;;;;;48.55;16.08;;;;;;;;;;5073343;28;20104;-74
2021/08/24 00:33:36;;;;;;;42.78;13.35;;;;;;;;;;5072887;28;20598;-73
2021/08/24 00:36:02;;;;;;;36.22;13.13;;;;;;;;;;5072696;28;20025;-72
2021/08/24 00:38:28;;;;;;;43.03;13.35;;;;;;;;;;5073785;28;20036;-72
2021/08/24 00:40:56;;;;;;;47.63;14.02;;;;;;;;;;5075333;28;20502;-71
2021/08/24 00:43:23;;;;;;;43.42;14.55;;;;;;;;;;5074702;28;20032;-72
2021/08/24 00:45:51;;;;;;;40.90;14.68;;;;;;;;;;5073142;28;20047;-71
2021/08/24 00:48:17;;;;;;;39.88;13.32;;;;;;;;;;5071670;28;20085;-71
2021/08/24 00:50:46;;;;;;;43.22;14.38;;;;;;;;;;5072615;28;20031;-70
2021/08/24 00:53:13;;;;;;;39.85;13.43;;;;;;;;;;5076619;28;20502;-70
2021/08/24 00:55:40;;;;;;;51.88;13.07;;;;;;;;;;5073386;28;20056;-73
2021/08/24 00:58:10;;;;;;;35.50;12.93;;;;;;;;;;5072701;28;20024;-73
2021/08/24 01:00:36;;;;;;;56.33;13.57;;;;;;;;;;5072839;28;20044;-73
2021/08/24 01:03:13;;;;;;;67.93;13.45;;;;;;;;;;5073448;28;20047;-71
2021/08/24 01:05:40;;;;;;;44.45;11.88;;;;;;;;;;5074291;28;20032;-72
2021/08/24 01:08:21;;;;;;;44.20;11.20;;;;;;;;;;5077422;28;20052;-70
2021/08/24 01:11:04;;;;;;;51.70;12.30;;;;;;;;;;5079208;28;20035;-74
2021/08/24 01:13:42;;;;;;;39.75;11.82;;;;;;;;;;5078645;28;20024;-71
2021/08/24 01:16:25;;;;;;;47.47;10.18;;;;;;;;;;5080108;28;20027;-73
2021/08/24 01:19:09;;;;;;;49.85;10.13;;;;;;;;;;5079086;28;20107;-73
2021/08/24 01:21:44;;;;;;;50.53;11.95;;;;;;;;;;5079236;28;20089;-72
2021/08/24 01:24:10;;;;;;;32.67;10.60;;;;;;;;;;5080143;28;20052;-71
2021/08/24 01:27:06;;;;;;;41.05;11.23;;;;;;;;;;5080729;28;20025;-73
2021/08/24 01:29:41;;;;;;;36.50;10.32;;;;;;;;;;5070172;28;20032;-69
2021/08/24 01:32:07;;;;;;;;;;;;;;;;;;5079479;28;20094;-73
2021/08/24 01:34:46;;;;;;;113.03;12.77;;;;;;;;;;5078144;28;19904;-71
2021/08/24 01:37:28;;;;;;;45.15;10.65;;;;;;;;;;5080311;28;20024;-71
2021/08/24 01:39:59;;;;;;;39.15;10.38;;;;;;;;;;5079319;28;20033;-70
2021/08/24 01:42:28;;;;;;;48.50;11.77;;;;;;;;;;5079581;28;20020;-72
2021/08/24 01:44:54;;;;;;;60.30;11.77;;;;;;;;;;5080673;28;20475;-73
2021/08/24 01:47:27;;;;;;;64.22;10.82;;;;;;;;;;5083389;28;20024;-74
2021/08/24 01:49:59;;;;;;;39.17;10.88;;;;;;;;;;5083322;28;20668;-73
2021/08/24 01:52:30;;;;;;;52.63;9.98;;;;;;;;;;5083288;28;20051;-71
2021/08/24 01:54:58;;;;;;;49.63;12.32;;;;;;;;;;5079407;28;20028;-71
2021/08/24 01:57:31;;;;;;;47.10;10.50;;;;;;;;;;5078134;28;20025;-72
2021/08/24 02:00:00;;;;;;;48.50;11.38;;;;;;;;;;5081117;28;20035;-71
2021/08/24 02:02:30;;;;;;;41.88;10.73;;;;;;;;;;5078865;28;20104;-72
2021/08/24 02:05:01;;;;;;;31.38;9.52;;;;;;;;;;5077534;28;20024;-72
2021/08/24 02:07:29;;;;;;;47.70;10.32;;;;;;;;;;5078764;28;20040;-71
2021/08/24 02:09:59;;;;;;;46.10;11.20;;;;;;;;;;5080561;28;20384;-70
2021/08/24 02:12:26;;;;;;;47.00;11.38;;;;;;;;;;5078797;28;20108;-72
2021/08/24 02:14:52;;;;;;;56.90;11.60;;;;;;;;;;5078689;28;20031;-73
2021/08/24 02:17:21;;;;;;;58.67;11.32;;;;;;;;;;5078611;28;20056;-72
2021/08/24 02:19:50;;;;;;;59.60;11.95;;;;;;;;;;5075606;28;20039;-71
2021/08/24 02:22:20;;;;;;;63.85;13.95;;;;;;;;;;5076481;28;20430;-70
2021/08/24 02:24:50;;;;;;;53.88;13.65;;;;;;;;;;5075869;28;20016;-72
2021/08/24 02:27:20;;;;;;;70.03;14.27;;;;;;;;;;5075308;28;20024;-72
2021/08/24 02:29:49;;;;;;;90.25;15.30;;;;;;;;;;5075523;28;20096;-72
2021/08/24 02:32:16;;;;;;;54.95;12.15;;;;;;;;;;5076497;28;20103;-71
2021/08/24 02:34:52;;;;;;;60.30;13.73;;;;;;;;;;5075265;28;20104;-71
2021/08/24 02:37:18;;;;;;;84.13;13.43;;;;;;;;;;5075698;28;20103;-72
2021/08/24 02:39:44;;;;;;;56.58;11.60;;;;;;;;;;5079193;28;20030;-70
2021/08/24 02:42:10;;;;;;;64.10;11.93;;;;;;;;;;5080976;28;20111;-71
2021/08/24 02:44:41;;;;;;;41.20;11.02;;;;;;;;;;5080025;28;20048;-73
2021/08/24 02:47:08;;;;;;;42.47;12.10;;;;;;;;;;5078769;28;20153;-73
2021/08/24 02:49:34;;;;;;;70.80;12.80;;;;;;;;;;5078118;28;20028;-73
2021/08/24 02:52:03;;;;;;;60.83;13.10;;;;;;;;;;5076646;28;20541;-69
2021/08/24 02:54:31;;;;;;;52.45;12.35;;;;;;;;;;5075970;28;20021;-70
2021/08/24 02:57:00;;;;;;;52.20;11.70;;;;;;;;;;5075747;28;20055;-71
2021/08/24 02:59:26;;;;;;;49.30;12.45;;;;;;;;;;5075078;28;20055;-71
2021/08/24 03:01:52;;;;;;;45.47;10.90;;;;;;;;;;5075186;28;20024;-71
2021/08/24 03:04:18;;;;;;;58.72;14.10;;;;;;;;;;5075728;28;20421;-71
2021/08/24 03:06:49;;;;;;;44.30;11.50;;;;;;;;;;5075522;28;20051;-71
2021/08/24 03:09:17;;;;;;;37.65;10.40;;;;;;;;;;5074611;28;20048;-70
2021/08/24 03:11:52;;;;;;;45.35;11.55;;;;;;;;;;5074828;28;20021;-71
2021/08/24 03:14:18;;;;;;;;;;;;;;;;;;5073975;28;20025;-71
2021/08/24 03:16:53;;;;;;;41.55;8.57;;;;;;;;;;5074752;28;20263;-71
2021/08/24 03:19:23;;;;;;;50.92;11.45;;;;;;;;;;5073349;28;20494;-72
2021/08/24 03:21:50;;;;;;;68.10;10.68;;;;;;;;;;5074227;28;20025;-72
2021/08/24 03:24:17;;;;;;;45.70;10.45;;;;;;;;;;5074185;28;20025;-72
2021/08/24 03:26:44;;;;;;;35.42;9.25;;;;;;;;;;5075156;28;20024;-72
2021/08/24 03:29:13;;;;;;;42.83;9.60;;;;;;;;;;5074252;28;20478;-71
2021/08/24 03:31:40;;;;;;;54.53;9.70;;;;;;;;;;5073931;28;20025;-71
2021/08/24 03:34:07;;;;;;;56.35;9.73;;;;;;;;;;5073955;28;20040;-70
2021/08/24 03:36:33;;;;;;;61.92;9.68;;;;;;;;;;5074370;28;20491;-72
2021/08/24 03:38:59;;;;;;;50.95;9.75;;;;;;;;;;5075534;28;20025;-70
2021/08/24 03:41:25;;;;;;;50.75;9.63;;;;;;;;;;5074650;28;20468;-71
2021/08/24 03:43:51;;;;;;;32.92;8.77;;;;;;;;;;5073661;28;20035;-71
2021/08/24 03:46:17;;;;;;;47.35;10.38;;;;;;;;;;5074080;28;20050;-72
2021/08/24 03:48:44;;;;;;;48.70;9.27;;;;;;;;;;5074203;28;20073;-70
2021/08/24 03:51:10;;;;;;;74.78;10.05;;;;;;;;;;5074866;28;20483;-72
2021/08/24 03:53:36;;;;;;;44.28;8.15;;;;;;;;;;5073582;28;20379;-73
2021/08/24 03:56:05;;;;;;;65.65;9.43;;;;;;;;;;5074302;28;20052;-71
2021/08/24 03:58:31;;;;;;;47.97;9.73;;;;;;;;;;5073566;28;20029;-71
2021/08/24 04:00:57;;;;;;;34.63;8.00;;;;;;;;;;5072950;28;20035;-71
2021/08/24 04:03:23;;;;;;;19.52;7.32;;;;;;;;;;5073699;28;20123;-71
2021/08/24 04:05:57;;;;;;;39.20;8.55;;;;;;;;;;5073513;28;20023;-72
2021/08/24 04:08:23;;;;;;;30.55;7.22;;;;;;;;;;5073247;28;20041;-70
2021/08/24 04:10:49;;;;;;;19.45;6.53;;;;;;;;;;5073699;28;20036;-71
2021/08/24 04:13:15;;;;;;;39.47;7.32;;;;;;;;;;5073502;28;20027;-70
2021/08/24 04:15:41;;;;;;;51.70;8.60;;;;;;;;;;5074550;28;20029;-71
2021/08/24 04:18:07;;;;;;;36.70;7.05;;;;;;;;;;5071943;28;20119;-71
2021/08/24 04:20:33;;;;;;;48.78;9.25;;;;;;;;;;5073149;28;20027;-71
2021/08/24 04:22:59;;;;;;;33.50;8.25;;;;;;;;;;5073075;28;20028;-71
2021/08/24 04:25:25;;;;;;;40.33;8.38;;;;;;;;;;5073469;28;20100;-71
2021/08/24 04:27:51;;;;;;;47.85;9.10;;;;;;;;;;5072920;28;20028;-71
2021/08/24 04:30:17;;;;;;;57.17;9.77;;;;;;;;;;5072994;28;20480;-72
2021/08/24 04:32:45;;;;;;;72.40;10.35;;;;;;;;;;5071711;28;20039;-72
2021/08/24 04:35:12;;;;;;;43.17;8.70;;;;;;;;;;5073571;28;20078;-71
2021/08/24 04:37:39;;;;;;;45.97;9.52;;;;;;;;;;5072841;28;20032;-72
2021/08/24 04:40:05;;;;;;;63.70;11.82;;;;;;;;;;5071630;28;20027;-71
2021/08/24 04:42:31;;;;;;;55.85;9.32;;;;;;;;;;5072131;28;20040;-71
2021/08/24 04:44:58;;;;;;;30.65;7.53;;;;;;;;;;5072979;28;20114;-70
2021/08/24 04:47:24;;;;;;;31.15;8.40;;;;;;;;;;5071549;28;20021;-72
2021/08/24 04:49:51;;;;;;;36.97;8.15;;;;;;;;;;5073673;28;20029;-70
2021/08/24 04:52:17;;;;;;;49.03;9.75;;;;;;;;;;5072796;28;20449;-71
2021/08/24 04:54:43;;;;;;;42.90;9.60;;;;;;;;;;5071389;28;20044;-71
2021/08/24 04:57:09;;;;;;;28.83;8.50;;;;;;;;;;5072588;28;20021;-72
2021/08/24 04:59:35;;;;;;;36.15;9.50;;;;;;;;;;5072722;28;20472;-72
2021/08/24 05:02:01;;;;;;;30.23;8.52;;;;;;;;;;5071377;28;20447;-73
2021/08/24 05:04:27;;;;;;;99.85;12.93;;;;;;;;;;5072763;28;20027;-72
2021/08/24 05:06:54;;;;;;;57.58;10.65;;;;;;;;;;5074626;28;20048;-71
2021/08/24 05:09:20;;;;;;;43.53;10.25;;;;;;;;;;5072411;28;20372;-71
2021/08/24 05:11:47;;;;;;;48.05;10.95;;;;;;;;;;5072675;28;20099;-70
2021/08/24 05:14:13;;;;;;;39.67;10.52;;;;;;;;;;5072499;28;20103;-71
2021/08/24 05:16:40;;;;;;;30.17;9.70;;;;;;;;;;5072519;28;20134;-72
2021/08/24 05:19:06;;;;;;;91.43;11.45;;;;;;;;;;5074257;28;20052;-70
2021/08/24 05:21:34;;;;;;;41.22;9.45;;;;;;;;;;5075991;28;20021;-72
2021/08/24 05:24:00;;;;;;;87.80;11.85;;;;;;;;;;5075203;28;20112;-72
2021/08/24 05:26:27;;;;;;;47.95;10.63;;;;;;;;;;5075204;28;20070;-72
2021/08/24 05:28:53;;;;;;;45.80;9.90;;;;;;;;;;5078918;28;20017;-73
2021/08/24 05:31:19;;;;;;;61.45;11.00;;;;;;;;;;5072840;28;20032;-71
2021/08/24 05:33:45;;;;;;;56.38;10.27;;;;;;;;;;5072820;28;20047;-72
2021/08/24 05:36:11;;;;;;;56.75;11.52;;;;;;;;;;5072532;28;20032;-71
2021/08/24 05:38:38;;;;;;;95.43;11.48;;;;;;;;;;5073169;28;20021;-72
2021/08/24 05:41:05;;;;;;;52.53;10.35;;;;;;;;;;5072402;28;20029;-71
2021/08/24 05:43:31;;;;;;;111.53;12.27;;;;;;;;;;5072066;28;20040;-70
2021/08/24 05:45:58;;;;;;;42.25;9.80;;;;;;;;;;5072304;28;20105;-71
2021/08/24 05:48:26;;;;;;;46.55;10.00;;;;;;;;;;5072257;28;20036;-71
2021/08/24 05:50:52;;;;;;;50.03;9.57;;;;;;;;;;5072366;28;20485;-71
2021/08/24 05:53:18;;;;;;;45.97;8.65;;;;;;;;;;5072318;28;20024;-71
2021/08/24 05:55:44;;;;;;;25.30;8.30;;;;;;;;;;5075748;28;20387;-70
2021/08/24 05:58:10;;;;;;;33.70;8.48;;;;;;;;;;5076866;28;20035;-71
2021/08/24 06:00:37;;;;;;;49.92;9.07;;;;;;;;;;5076032;28;20024;-71
2021/08/24 06:03:03;;;;;;;69.95;8.50;;;;;;;;;;5075810;28;20025;-71
2021/08/24 06:05:30;;;;;;;30.25;7.63;;;;;;;;;;5075916;28;20516;-70
2021/08/24 06:07:56;;;;;;;30.30;7.47;;;;;;;;;;5075887;28;20045;-72
2021/08/24 06:10:22;;;;;;;30.52;7.68;;;;;;;;;;5076079;28;20391;-71
2021/08/24 06:12:48;;;;;;;27.58;6.90;;;;;;;;;;5075907;28;20033;-70
2021/08/24 06:15:14;;;;;;;34.28;7.35;;;;;;;;;;5076033;28;20052;-71
2021/08/24 06:17:41;;;;;;;38.75;8.60;;;;;;;;;;5075819;28;20025;-70
2021/08/24 06:20:08;;;;;;;67.00;9.32;;;;;;;;;;5075835;28;20031;-72
2021/08/24 06:22:34;;;;;;;42.38;9.82;;;;;;;;;;5076054;28;20021;-72
2021/08/24 06:25:00;;;;;;;24.17;7.15;;;;;;;;;;5075792;28;20150;-72
2021/08/24 06:27:26;;;;;;;41.38;7.88;;;;;;;;;;5075780;28;20021;-71
2021/08/24 06:29:53;;;;;;;23.75;6.55;;;;;;;;;;5076203;28;20028;-71
2021/08/24 06:32:25;;;;;;;39.72;7.20;;;;;;;;;;5074090;28;20356;-71
2021/08/24 06:34:51;;;;;;;31.42;6.50;;;;;;;;;;5075164;28;20027;-70
2021/08/24 06:37:17;;;;;;;31.80;7.28;;;;;;;;;;5075315;28;20016;-71
2021/08/24 06:39:43;;;;;;;26.27;6.03;;;;;;;;;;5073721;28;20021;-70
2021/08/24 06:42:09;;;;;;;33.92;6.97;;;;;;;;;;5074869;28;20016;-70
2021/08/24 06:44:35;;;;;;;53.55;7.80;;;;;;;;;;5075101;28;20017;-70
2021/08/24 06:47:01;;;;;;;46.90;7.28;;;;;;;;;;5074924;28;20497;-71
2021/08/24 06:49:27;;;;;;;39.58;7.28;;;;;;;;;;5074913;28;20101;-71
2021/08/24 06:51:53;;;;;;;59.53;8.05;;;;;;;;;;5074975;28;20066;-71
2021/08/24 06:54:19;;;;;;;47.78;7.70;;;;;;;;;;5074930;28;20103;-71
2021/08/24 06:56:45;;;;;;;49.58;7.78;;;;;;;;;;5075001;28;20035;-71
2021/08/24 06:59:13;;;;;;;46.60;7.28;;;;;;;;;;5074818;28;20036;-72
2021/08/24 07:01:39;;;;;;;69.40;8.38;;;;;;;;;;5074915;28;20017;-70
2021/08/24 07:04:05;;;;;;;41.95;7.47;;;;;;;;;;5074825;28;20033;-69
2021/08/24 07:06:31;;;;;;;37.53;8.02;;;;;;;;;;5074312;28;20483;-71
2021/08/24 07:08:59;;;;;;;19.73;5.57;;;;;;;;;;5075069;28;20055;-71
2021/08/24 07:11:28;;;;;;;30.17;6.47;;;;;;;;;;5075514;28;20054;-72
2021/08/24 07:13:58;;;;;;;32.85;7.05;;;;;;;;;;5074656;28;20024;-71
2021/08/24 07:16:25;;;;;;;39.47;7.25;;;;;;;;;;5074605;28;20074;-70
2021/08/24 07:18:52;;;;;;;29.50;6.68;;;;;;;;;;5074869;28;20028;-71
2021/08/24 07:21:18;;;;;;;26.48;6.90;;;;;;;;;;5075458;28;20396;-71
2021/08/24 07:23:46;;;;;;;30.73;7.20;;;;;;;;;;5074321;28;20028;-70
2021/08/24 07:26:13;;;;;;;26.73;6.88;;;;;;;;;;5074334;28;20510;-71
2021/08/24 07:28:39;;;;;;;49.75;8.48;;;;;;;;;;5074319;28;20037;-70
2021/08/24 07:31:05;;;;;;;27.90;8.05;;;;;;;;;;5074774;28;20079;-71
2021/08/24 07:33:31;;;;;;;26.40;7.25;;;;;;;;;;5074575;28;20073;-71
2021/08/24 07:35:58;;;;;;;20.38;7.20;;;;;;;;;;5074220;28;20028;-72
2021/08/24 07:38:24;;;;;;;47.90;10.10;;;;;;;;;;5074141;28;20391;-72
2021/08/24 07:40:50;;;;;;;28.88;7.30;;;;;;;;;;5074177;28;20024;-72
2021/08/24 07:43:17;;;;;;;24.17;7.22;;;;;;;;;;5074480;28;20031;-71
2021/08/24 07:45:43;;;;;;;46.03;8.65;;;;;;;;;;5074365;28;20017;-70
2021/08/24 07:48:09;;;;;;;21.52;7.95;;;;;;;;;;5074365;28;20028;-73
2021/08/24 07:50:35;;;;;;;22.00;7.43;;;;;;;;;;5074201;28;20425;-70
2021/08/24 07:53:01;;;;;;;24.40;7.68;;;;;;;;;;5073723;28;20029;-72
2021/08/24 07:55:28;;;;;;;34.15;8.15;;;;;;;;;;5072340;28;20028;-75
2021/08/24 07:57:54;;;;;;;62.17;10.02;;;;;;;;;;5074214;28;20052;-71
2021/08/24 08:00:20;;;;;;;51.03;9.43;;;;;;;;;;5073681;28;20043;-71
2021/08/24 08:02:46;;;;;;;22.40;7.90;;;;;;;;;;5072137;28;20451;-71
2021/08/24 08:05:14;;;;;;;24.33;9.18;;;;;;;;;;5073629;28;20051;-73
2021/08/24 08:07:40;;;;;;;26.25;10.05;;;;;;;;;;5073759;28;20052;-72
2021/08/24 08:10:06;;;;;;;23.48;9.15;;;;;;;;;;5074292;28;20017;-72
2021/08/24 08:12:32;;;;;;;21.13;10.35;;;;;;;;;;5073427;28;20042;-71
2021/08/24 08:14:58;;;;;;;25.95;10.30;;;;;;;;;;5074052;28;20020;-71
2021/08/24 08:17:24;;;;;;;30.13;10.35;;;;;;;;;;5073037;28;20028;-71
2021/08/24 08:19:50;;;;;;;29.48;9.57;;;;;;;;;;5073746;28;20028;-72
2021/08/24 08:22:16;;;;;;;25.40;9.45;;;;;;;;;;5073578;28;20021;-71
2021/08/24 08:24:43;;;;;;;22.00;9.30;;;;;;;;;;5074420;28;20411;-70
2021/08/24 08:27:09;;;;;;;28.13;10.10;;;;;;;;;;5074265;28;20027;-71
2021/08/24 08:29:35;;;;;;;28.35;10.57;;;;;;;;;;5073898;28;20051;-71
2021/08/24 08:32:04;;;;;;;47.13;11.00;;;;;;;;;;5073654;28;20021;-73
2021/08/24 08:34:30;;;;;;;20.42;9.23;;;;;;;;;;5072958;28;20399;-71
2021/08/24 08:36:56;;;;;;;24.33;9.82;;;;;;;;;;5073079;28;20426;-70
2021/08/24 08:39:22;;;;;;;22.42;9.65;;;;;;;;;;5073081;28;20031;-70
2021/08/24 08:42:09;;;;;;;26.00;10.35;;;;;;;;;;5072879;28;20085;-71
2021/08/24 08:44:44;;;;;;;28.67;10.40;;;;;;;;;;5072905;28;20032;-71
2021/08/24 08:47:10;;;;;;;;;;;;;;;;;;5074099;28;20032;-71
2021/08/24 08:49:36;;;;;;;27.83;10.48;;;;;;;;;;5072911;28;19904;-71
2021/08/24 08:52:21;;;;;;;22.60;10.18;;;;;;;;;;5072813;28;20027;-71
2021/08/24 08:54:47;;;;;;;26.30;10.73;;;;;;;;;;5074737;28;20487;-71
2021/08/24 08:57:15;;;;;;;20.60;9.43;;;;;;;;;;5073604;28;20082;-72
2021/08/24 09:00:13;;;;;;;26.65;11.20;;;;;;;;;;5072959;28;20021;-71
2021/08/24 09:02:56;;;;;;;23.63;11.18;;;;;;;;;;5049968;28;20392;-73
2021/08/24 09:05:25;;;;;;;20.73;10.32;;;;;;;;;;5073881;28;20021;-71
2021/08/24 09:07:53;;;;;;;23.75;10.93;;;;;;;;;;5073102;28;20071;-72
2021/08/24 09:10:21;;;;;;;22.67;11.60;;;;;;;;;;5076500;28;20027;-71
2021/08/24 09:12:51;;;;;;;24.00;10.73;;;;;;;;;;5075084;28;20447;-72
2021/08/24 09:15:19;;;;;;;24.00;10.43;;;;;;;;;;5074045;28;20021;-71
2021/08/24 09:17:46;;;;;;;21.35;10.65;;;;;;;;;;5074243;28;20548;-70
2021/08/24 09:20:27;;;;;;;21.42;11.07;;;;;;;;;;5073301;28;20029;-73
2021/08/24 09:22:54;;;;;;;26.30;12.65;;;;;;;;;;5073676;28;20039;-71
2021/08/24 09:25:23;;;;;;;27.13;13.68;;;;;;;;;;5073110;28;20020;-70
2021/08/24 09:27:53;;;;;;;29.70;14.70;;;;;;;;;;5073419;28;20143;-71
2021/08/24 09:30:20;;;;;;;26.55;13.70;;;;;;;;;;5076861;28;20023;-70
2021/08/24 09:32:47;;;;;;;28.85;14.05;;;;;;;;;;5076635;28;20384;-71
2021/08/24 09:35:15;;;;;;;22.75;12.05;;;;;;;;;;5076557;28;20075;-71
2021/08/24 09:37:42;;;;;;;25.13;12.57;;;;;;;;;;5076432;28;20391;-72
2021/08/24 09:40:10;;;;;;;20.13;11.32;;;;;;;;;;5076385;28;20021;-70
2021/08/24 09:42:43;;;;;;;22.75;11.35;;;;;;;;;;5076308;28;20024;-70
2021/08/24 09:45:29;;;;;;;22.02;11.52;;;;;;;;;;5076328;28;20024;-72
2021/08/24 09:47:59;;;;;;;26.48;13.15;;;;;;;;;;5076879;28;20494;-70
2021/08/24 09:50:29;;;;;;;20.90;11.00;;;;;;;;;;5076603;28;20059;-71
2021/08/24 09:52:55;;;;;;;19.73;11.80;;;;;;;;;;5076154;28;20033;-72
2021/08/24 09:55:23;;;;;;;25.10;12.45;;;;;;;;;;5076301;28;20483;-71
2021/08/24 09:57:57;;;;;;;24.70;13.07;;;;;;;;;;5077620;28;20033;-71
2021/08/24 10:00:40;;;;;;;24.55;13.25;;;;;;;;;;5075984;28;20021;-73
2021/08/24 10:03:20;;;;;;;21.50;12.55;;;;;;;;;;5075781;28;20078;-71
2021/08/24 10:05:47;;;;;;;20.45;12.40;;;;;;;;;;5075633;28;20031;-70
2021/08/24 10:08:27;;;;;;;21.27;11.93;;;;;;;;;;5075763;28;20487;-72
2021/08/24 10:11:01;;;;;;;20.65;11.90;;;;;;;;;;5077481;28;20035;-71
2021/08/24 10:13:31;;;;;;;22.73;12.32;;;;;;;;;;5075701;28;20025;-71
2021/08/24 10:16:20;;;;;;;19.02;10.50;;;;;;;;;;5075648;28;20099;-71
2021/08/24 10:18:47;;;;;;;16.30;10.40;;;;;;;;;;5075532;28;20104;-72
2021/08/24 10:21:14;;;;;;;20.30;11.00;;;;;;;;;;5075736;28;20115;-71
2021/08/24 10:23:48;;;;;;;16.83;11.50;;;;;;;;;;5077794;28;20099;-71
2021/08/24 10:26:22;;;;;;;19.40;11.30;;;;;;;;;;5075529;28;20021;-71
2021/08/24 10:28:53;;;;;;;16.98;9.30;;;;;;;;;;5077296;28;20259;-71
2021/08/24 10:31:25;;;;;;;18.42;11.10;;;;;;;;;;5075877;28;20315;-70
2021/08/24 10:33:59;;;;;;;18.85;11.15;;;;;;;;;;5075601;28;20491;-71
2021/08/24 10:36:31;;;;;;;18.55;10.48;;;;;;;;;;5075280;28;20365;-69
2021/08/24 10:39:02;;;;;;;15.07;9.27;;;;;;;;;;5075105;28;20020;-71
2021/08/24 10:41:40;;;;;;;13.43;9.10;;;;;;;;;;5074779;28;20047;-71
2021/08/24 10:44:09;;;;;;;14.30;9.18;;;;;;;;;;5075564;28;20021;-72
2021/08/24 10:46:46;;;;;;;13.32;9.27;;;;;;;;;;5074107;28;20107;-73
2021/08/24 10:49:12;;;;;;;14.43;9.38;;;;;;;;;;5075185;28;20025;-73
2021/08/24 10:51:44;;;;;;;11.43;8.73;;;;;;;;;;5075519;28;20017;-72
2021/08/24 10:54:42;;;;;;;17.33;9.57;;;;;;;;;;5075337;28;20036;-72
2021/08/24 10:57:11;;;;;;;17.00;9.35;;;;;;;;;;5052012;28;20529;-72
2021/08/24 10:59:37;;;;;;;15.70;9.13;;;;;;;;;;5074888;28;20036;-71
2021/08/24 11:02:26;;;;;;;13.95;8.50;;;;;;;;;;5075652;28;20028;-71
2021/08/24 11:04:58;;;;;;;14.20;8.82;;;;;;;;;;5058341;28;20048;-71
2021/08/24 11:07:49;;;;;;;10.00;6.90;;;;;;;;;;5074487;28;20442;-72
2021/08/24 11:10:15;;;;;;;17.80;9.07;;;;;;;;;;5076097;28;20388;-73
2021/08/24 11:13:00;;;;;;;11.13;7.53;;;;;;;;;;5074907;28;20029;-71
2021/08/24 11:15:45;;;;;;;18.92;9.88;;;;;;;;;;5074495;28;20028;-72
2021/08/24 11:18:43;;;;;;;13.43;7.68;;;;;;;;;;5074498;28;20374;-71
2021/08/24 11:21:19;;;;;;;10.98;7.97;;;;;;;;;;5051683;28;20036;-72
2021/08/24 11:23:54;;;;;;;13.27;7.95;;;;;;;;;;5074312;28;20496;-71
2021/08/24 11:26:30;;;;;;;12.55;8.30;;;;;;;;;;5074319;28;20085;-71
2021/08/24 11:28:56;;;;;;;10.60;7.90;;;;;;;;;;5074288;28;20017;-71
2021/08/24 11:31:33;;;;;;;10.88;7.38;;;;;;;;;;5074226;28;20096;-72
2021/08/24 11:34:02;;;;;;;14.32;8.15;;;;;;;;;;5074754;28;20031;-72
2021/08/24 11:36:34;;;;;;;11.00;7.40;;;;;;;;;;5074552;28;20519;-71
2021/08/24 11:39:11;;;;;;;11.52;7.30;;;;;;;;;;5073835;28;20037;-71
2021/08/24 11:41:40;;;;;;;11.45;7.20;;;;;;;;;;5074628;28;20028;-71
2021/08/24 11:44:07;;;;;;;10.88;6.50;;;;;;;;;;5072686;28;20120;-72
2021/08/24 11:46:36;;;;;;;9.75;6.68;;;;;;;;;;5074538;28;20021;-72
2021/08/24 11:49:05;;;;;;;12.85;5.82;;;;;;;;;;5073720;28;20027;-72
2021/08/24 11:51:33;;;;;;;10.27;7.50;;;;;;;;;;5073823;28;20028;-71
2021/08/24 11:54:04;;;;;;;12.25;7.43;;;;;;;;;;5075387;28;20065;-73
2021/08/24 11:56:37;;;;;;;9.27;6.50;;;;;;;;;;5075261;28;20080;-71
2021/08/24 11:59:05;;;;;;;8.02;5.80;;;;;;;;;;5074158;28;20032;-71
2021/08/24 12:01:33;;;;;;;6.97;5.28;;;;;;;;;;5074642;28;20119;-72
2021/08/24 12:04:00;;;;;;;11.32;6.13;;;;;;;;;;5075601;28;20483;-71
2021/08/24 12:06:38;;;;;;;9.07;5.80;;;;;;;;;;5073327;28;20059;-72
2021/08/24 12:09:05;;;;;;;8.05;5.50;;;;;;;;;;5074939;28;20020;-73
2021/08/24 12:11:42;;;;;;;8.90;5.93;;;;;;;;;;5073731;28;20032;-72
2021/08/24 12:14:17;;;;;;;6.70;5.50;;;;;;;;;;5073341;28;20031;-71
2021/08/24 12:16:53;;;;;;;7.65;5.40;;;;;;;;;;5074039;28;20024;-70
2021/08/24 12:19:21;;;;;;;7.50;5.28;;;;;;;;;;5073703;28;20031;-71
2021/08/24 12:21:50;;;;;;;7.40;5.25;;;;;;;;;;5073315;28;20020;-71
2021/08/24 12:24:26;;;;;;;7.22;4.95;;;;;;;;;;5074128;28;20081;-71
2021/08/24 12:26:52;;;;;;;6.30;4.80;;;;;;;;;;5075614;28;20016;-72
2021/08/24 12:29:36;;;;;;;6.70;4.53;;;;;;;;;;5073180;28;20360;-71
2021/08/24 12:32:02;;;;;;;6.95;4.70;;;;;;;;;;5074247;28;20020;-73
2021/08/24 12:34:34;;;;;;;7.68;5.38;;;;;;;;;;5074475;28;20029;-71
2021/08/24 12:37:01;;;;;;;7.35;4.68;;;;;;;;;;5074577;28;20029;-71
2021/08/24 12:39:36;;;;;;;7.60;4.68;;;;;;;;;;5072591;28;20040;-73
2021/08/24 12:42:02;;;;;;;;;;;;;;;;;;5073499;28;20043;-73
2021/08/24 12:44:43;;;;;;;6.13;4.35;;;;;;;;;;5074458;28;20282;-73
2021/08/24 12:47:28;;;;;;;7.47;5.53;;;;;;;;;;5072682;28;20379;-72
2021/08/24 12:49:55;;;;;;;8.00;4.78;;;;;;;;;;5072494;28;20019;-72
2021/08/24 12:52:27;;;;;;;6.20;4.18;;;;;;;;;;5072628;28;20029;-72
2021/08/24 12:54:56;;;;;;;6.78;4.32;;;;;;;;;;5074245;28;20073;-72
2021/08/24 12:57:22;;;;;;;7.55;4.43;;;;;;;;;;5072841;28;20039;-73
2021/08/24 12:59:49;;;;;;;6.70;4.78;;;;;;;;;;5072467;28;20029;-72
2021/08/24 13:02:31;;;;;;;4.75;4.07;;;;;;;;;;5072430;28;20025;-72
2021/08/24 13:05:12;;;;;;;5.25;4.35;;;;;;;;;;5073983;28;20024;-73
2021/08/24 13:07:44;;;;;;;8.00;4.72;;;;;;;;;;5074027;28;20494;-73
2021/08/24 13:10:26;;;;;;;6.63;4.50;;;;;;;;;;5072498;28;20039;-74
2021/08/24 13:12:53;;;;;;;4.63;3.92;;;;;;;;;;5072455;28;20028;-74
2021/08/24 13:15:25;;;;;;;4.82;3.95;;;;;;;;;;5073914;28;20134;-73
2021/08/24 13:17:52;;;;;;;6.18;4.22;;;;;;;;;;5073463;28;20020;-73
2021/08/24 13:20:23;;;;;;;5.03;3.88;;;;;;;;;;5072275;28;20102;-75
2021/08/24 13:23:00;;;;;;;5.55;3.70;;;;;;;;;;5072199;28;20036;-74
2021/08/24 13:25:28;;;;;;;8.93;4.35;;;;;;;;;;5074206;28;20033;-73
2021/08/24 13:27:59;;;;;;;4.28;3.50;;;;;;;;;;5071058;28;20040;-74
2021/08/24 13:30:42;;;;;;;7.38;4.75;;;;;;;;;;5072444;28;20016;-73
2021/08/24 13:33:14;;;;;;;4.10;3.58;;;;;;;;;;5073415;28;20368;-74
2021/08/24 13:35:59;;;;;;;5.35;4.30;;;;;;;;;;5073981;28;20147;-74
2021/08/24 13:38:33;;;;;;;4.97;3.72;;;;;;;;;;5072341;28;20387;-73
2021/08/24 13:41:09;;;;;;;5.15;3.80;;;;;;;;;;5072127;28;20422;-73
2021/08/24 13:43:37;;;;;;;4.00;3.60;;;;;;;;;;5075505;28;20090;-73
2021/08/24 13:46:04;;;;;;;5.13;4.35;;;;;;;;;;5076968;28;20464;-74
2021/08/24 13:48:31;;;;;;;5.57;4.05;;;;;;;;;;5073623;28;20027;-73
2021/08/24 13:50:59;;;;;;;4.32;3.58;;;;;;;;;;5074332;28;20048;-75
2021/08/24 13:53:25;;;;;;;6.45;3.67;;;;;;;;;;5074379;28;20021;-75
2021/08/24 13:56:02;;;;;;;5.43;4.00;;;;;;;;;;5075149;28;20056;-74
2021/08/24 13:58:31;;;;;;;5.78;4.00;;;;;;;;;;5077072;28;20032;-76
2021/08/24 14:01:06;;;;;;;6.68;3.78;;;;;;;;;;5075373;28;20025;-73
2021/08/24 14:03:33;;;;;;;4.50;3.42;;;;;;;;;;5075605;28;20024;-74
2021/08/24 14:06:01;;;;;;;6.53;3.55;;;;;;;;;;5074523;28;20017;-75
2021/08/24 14:08:28;;;;;;;4.05;2.85;;;;;;;;;;5075598;28;20032;-74
2021/08/24 14:11:01;;;;;;;5.35;3.75;;;;;;;;;;5070922;28;20043;-72
2021/08/24 14:13:28;;;;;;;4.35;3.25;;;;;;;;;;5070614;28;20027;-72
2021/08/24 14:15:55;;;;;;;3.78;3.00;;;;;;;;;;5077264;28;20033;-74
2021/08/24 14:18:24;;;;;;;4.10;3.40;;;;;;;;;;5076442;28;20024;-73
2021/08/24 14:20:53;;;;;;;4.15;3.10;;;;;;;;;;5075451;28;20055;-73
2021/08/24 14:23:22;;;;;;;4.30;3.15;;;;;;;;;;5075450;28;20040;-73
2021/08/24 14:25:50;;;;;;;4.55;2.95;;;;;;;;;;5078960;28;20027;-74
2021/08/24 14:28:22;;;;;;;5.43;3.35;;;;;;;;;;5076686;28;20028;-73
2021/08/24 14:30:49;;;;;;;5.95;3.15;;;;;;;;;;5075406;28;20028;-73
2021/08/24 14:33:16;;;;;;;4.70;3.50;;;;;;;;;;5077008;28;20033;-72
2021/08/24 14:35:52;;;;;;;4.30;3.10;;;;;;;;;;5077374;28;20074;-74
2021/08/24 14:38:27;;;;;;;3.55;2.78;;;;;;;;;;5077701;28;20538;-73
2021/08/24 14:40:53;;;;;;;3.88;3.30;;;;;;;;;;5075234;28;20471;-75
2021/08/24 14:43:20;;;;;;;4.03;3.15;;;;;;;;;;5075177;28;20063;-74